createdAt,value
2018-02-19T00:00:33.162Z,15.07
2018-02-19T00:03:00.786Z,18.35
2018-02-19T00:05:28.381Z,15.00
2018-02-19T00:07:56.022Z,15.63
2018-02-19T00:10:24.401Z,16.30
2018-02-19T00:12:52.765Z,15.93
2018-02-19T00:15:20.364Z,15.43
2018-02-19T00:17:47.993Z,14.80
2018-02-19T00:20:16.372Z,14.23
2018-02-19T00:22:44.755Z,14.73
2018-02-19T00:25:13.127Z,15.52
2018-02-19T00:27:41.532Z,14.50
2018-02-19T00:30:09.176Z,14.63
2018-02-19T00:32:37.584Z,16.77
2018-02-19T00:35:05.210Z,15.68
2018-02-19T00:37:32.809Z,14.93
2018-02-19T00:40:00.434Z,15.63
2018-02-19T00:42:28.828Z,16.83
2018-02-19T00:44:56.443Z,17.12
2018-02-19T00:47:24.036Z,16.45
2018-02-19T00:49:52.462Z,16.17
2018-02-19T00:52:20.086Z,15.55
2018-02-19T00:54:48.456Z,16.00
2018-02-19T00:57:16.855Z,14.95
2018-02-19T00:59:44.453Z,16.25
2018-02-19T01:02:12.094Z,15.63
2018-02-19T01:04:40.470Z,16.15
2018-02-19T01:07:08.094Z,16.40
2018-02-19T01:09:36.463Z,17.02
2018-02-19T01:12:04.187Z,16.65
2018-02-19T01:14:31.782Z,15.85
2018-02-19T01:16:59.374Z,15.85
2018-02-19T01:19:26.980Z,16.45
2018-02-19T01:21:54.606Z,14.98
2018-02-19T01:24:22.290Z,16.87
2018-02-19T01:26:49.954Z,16.52
2018-02-19T01:29:17.588Z,17.75
2018-02-19T01:31:45.207Z,15.93
2018-02-19T01:34:12.947Z,16.55
2018-02-19T01:36:40.571Z,15.60
2018-02-19T01:39:08.182Z,16.02
2018-02-19T01:41:35.796Z,15.38
2018-02-19T01:44:03.421Z,16.37
2018-02-19T01:46:31.789Z,14.15
2018-02-19T01:48:59.419Z,14.38
2018-02-19T01:51:27.017Z,14.98
2018-02-19T01:53:54.623Z,17.52
2018-02-19T01:56:22.238Z,15.93
2018-02-19T01:58:49.867Z,15.00
2018-02-19T02:01:17.492Z,15.27
2018-02-19T02:03:45.884Z,16.25
2018-02-19T02:06:14.266Z,15.77
2018-02-19T02:08:41.945Z,14.57
2018-02-19T02:11:09.584Z,14.70
2018-02-19T02:13:37.249Z,15.23
2018-02-19T02:16:04.876Z,14.95
2018-02-19T02:18:33.275Z,16.75
2018-02-19T02:21:01.676Z,16.08
2018-02-19T02:23:29.307Z,17.02
2018-02-19T02:25:57.669Z,15.40
2018-02-19T02:28:25.272Z,15.68
2018-02-19T02:30:52.904Z,16.73
2018-02-19T02:33:21.293Z,16.95
2018-02-19T02:35:49.678Z,15.98
2018-02-19T02:38:17.309Z,15.45
2018-02-19T02:40:45.032Z,15.80
2018-02-19T02:43:12.663Z,16.00
2018-02-19T02:45:40.299Z,15.15
2018-02-19T02:48:07.911Z,17.23
2018-02-19T02:50:35.530Z,16.83
2018-02-19T02:53:03.922Z,15.50
2018-02-19T02:55:32.309Z,16.52
2018-02-19T02:57:59.928Z,15.68
2018-02-19T03:00:29.073Z,16.90
2018-02-19T03:02:56.684Z,15.15
2018-02-19T03:05:24.297Z,16.67
2018-02-19T03:07:51.910Z,16.12
2018-02-19T03:10:19.639Z,16.58
2018-02-19T03:12:47.255Z,15.30
2018-02-19T03:15:15.624Z,16.23
2018-02-19T03:17:44.001Z,16.52
2018-02-19T03:20:11.604Z,16.05
2018-02-19T03:22:39.234Z,16.90
2018-02-19T03:25:07.659Z,15.70
2018-02-19T03:27:35.283Z,17.60
2018-02-19T03:30:03.701Z,16.05
2018-02-19T03:32:31.320Z,16.50
2018-02-19T03:34:59.696Z,15.77
2018-02-19T03:37:28.052Z,16.42
2018-02-19T03:39:55.796Z,19.10
2018-02-19T03:42:23.389Z,17.10
2018-02-19T03:44:51.778Z,18.15
2018-02-19T03:47:20.209Z,17.17
2018-02-19T03:49:47.833Z,17.33
2018-02-19T03:52:15.469Z,18.83
2018-02-19T03:54:43.882Z,17.20
2018-02-19T03:57:11.667Z,18.25
2018-02-19T03:59:39.266Z,18.35
2018-02-19T04:02:07.651Z,18.30
2018-02-19T04:04:37.102Z,19.95
2018-02-19T04:07:04.726Z,19.08
2018-02-19T04:09:33.114Z,16.62
2018-02-19T04:12:02.396Z,18.30
2018-02-19T04:14:30.025Z,17.85
2018-02-19T04:16:57.604Z,19.40
2018-02-19T04:19:26.001Z,18.58
2018-02-19T04:21:54.373Z,17.62
2018-02-19T04:24:22.753Z,19.77
2018-02-19T04:26:51.125Z,19.40
2018-02-19T04:29:18.748Z,19.25
2018-02-19T04:31:46.411Z,19.23
2018-02-19T04:34:14.028Z,19.42
2018-02-19T04:36:42.422Z,18.75
2018-02-19T04:39:10.047Z,19.17
2018-02-19T04:41:37.671Z,20.25
2018-02-19T04:44:05.383Z,18.80
2018-02-19T04:46:36.674Z,20.83
2018-02-19T04:49:04.271Z,19.80
2018-02-19T04:51:32.661Z,20.17
2018-02-19T04:54:00.270Z,19.98
2018-02-19T04:56:27.895Z,19.40
2018-02-19T04:58:56.246Z,20.17
2018-02-19T05:01:23.767Z,22.85
2018-02-19T05:03:51.282Z,22.42
2018-02-19T05:06:18.779Z,21.45
2018-02-19T05:08:46.284Z,23.12
2018-02-19T05:11:13.787Z,22.45
2018-02-19T05:13:42.079Z,19.65
2018-02-19T05:16:09.591Z,20.83
2018-02-19T05:18:37.863Z,19.95
2018-02-19T05:21:05.359Z,20.92
2018-02-19T05:23:33.764Z,21.45
2018-02-19T05:26:01.271Z,19.73
2018-02-19T05:28:28.783Z,21.67
2018-02-19T05:30:56.299Z,22.20
2018-02-19T05:33:24.579Z,23.05
2018-02-19T05:35:52.843Z,23.40
2018-02-19T05:38:20.360Z,24.75
2018-02-19T05:40:47.856Z,24.00
2018-02-19T05:43:15.355Z,25.10
2018-02-19T05:45:42.900Z,23.05
2018-02-19T05:48:11.171Z,25.08
2018-02-19T05:50:39.434Z,22.15
2018-02-19T05:53:06.943Z,22.27
2018-02-19T05:55:34.439Z,22.05
2018-02-19T05:58:01.943Z,22.20
2018-02-19T06:00:29.446Z,22.65
2018-02-19T06:02:56.969Z,20.05
2018-02-19T06:05:24.484Z,21.75
2018-02-19T06:07:52.751Z,22.25
2018-02-19T06:10:20.278Z,22.23
2018-02-19T06:12:47.784Z,25.25
2018-02-19T06:15:16.052Z,24.02
2018-02-19T06:17:43.657Z,23.10
2018-02-19T06:20:11.171Z,24.08
2018-02-19T06:22:39.431Z,23.62
2018-02-19T06:25:06.951Z,24.73
2018-02-19T06:27:34.462Z,25.08
2018-02-19T06:30:01.966Z,22.33
2018-02-19T06:32:29.603Z,24.42
2018-02-19T06:34:57.904Z,23.65
2018-02-19T06:37:25.398Z,23.73
2018-02-19T06:39:52.905Z,25.30
2018-02-19T06:42:20.419Z,26.90
2018-02-19T06:44:47.943Z,27.40
2018-02-19T06:47:15.443Z,26.45
2018-02-19T06:49:42.956Z,26.95
2018-02-19T06:52:10.471Z,25.75
2018-02-19T06:54:37.970Z,26.15
2018-02-19T06:57:05.490Z,23.85
2018-02-19T06:59:33.012Z,22.20
2018-02-19T07:02:00.518Z,22.00
2018-02-19T07:04:28.787Z,24.35
2018-02-19T07:06:57.052Z,22.40
2018-02-19T07:09:24.567Z,23.40
2018-02-19T07:11:52.063Z,24.05
2018-02-19T07:14:19.599Z,23.83
2018-02-19T07:16:47.132Z,24.33
2018-02-19T07:19:14.631Z,23.85
2018-02-19T07:21:42.131Z,25.20
2018-02-19T07:24:10.408Z,25.20
2018-02-19T07:26:38.684Z,26.55
2018-02-19T07:29:06.964Z,26.33
2018-02-19T07:31:34.459Z,28.45
2018-02-19T07:34:01.978Z,26.30
2018-02-19T07:36:29.493Z,27.55
2018-02-19T07:38:56.987Z,25.65
2018-02-19T07:41:25.263Z,26.58
2018-02-19T07:43:53.532Z,27.55
2018-02-19T07:46:21.803Z,27.67
2018-02-19T07:48:50.087Z,27.48
2018-02-19T07:51:18.363Z,26.73
2018-02-19T07:53:46.631Z,27.25
2018-02-19T07:56:14.957Z,29.15
2018-02-19T07:58:43.204Z,26.42
2018-02-19T08:01:11.468Z,25.77
2018-02-19T08:03:39.744Z,27.85
2018-02-19T08:06:08.006Z,28.38
2018-02-19T08:08:35.519Z,26.30
2018-02-19T08:11:03.030Z,29.00
2018-02-19T08:13:30.552Z,25.88
2018-02-19T08:15:58.068Z,25.70
2018-02-19T08:18:26.343Z,25.60
2018-02-19T08:20:54.615Z,26.20
2018-02-19T08:23:22.881Z,27.13
2018-02-19T08:25:51.156Z,27.77
2018-02-19T08:28:19.439Z,26.30
2018-02-19T08:30:47.726Z,28.12
2018-02-19T08:33:15.227Z,26.25
2018-02-19T08:35:42.736Z,32.45
2018-02-19T08:38:11.019Z,29.98
2018-02-19T08:40:39.283Z,27.62
2018-02-19T08:43:07.543Z,31.00
2018-02-19T08:45:35.040Z,28.30
2018-02-19T08:48:02.539Z,29.20
2018-02-19T08:50:30.051Z,28.85
2018-02-19T08:52:57.559Z,29.08
2018-02-19T08:55:25.064Z,27.98
2018-02-19T08:57:52.571Z,27.67
2018-02-19T09:00:20.199Z,29.00
2018-02-19T09:02:47.704Z,29.23
2018-02-19T09:05:15.967Z,28.83
2018-02-19T09:07:43.474Z,30.77
2018-02-19T09:10:11.726Z,30.62
2018-02-19T09:12:40.029Z,32.83
2018-02-19T09:15:07.507Z,31.20
2018-02-19T09:17:35.022Z,32.00
2018-02-19T09:20:02.518Z,31.00
2018-02-19T09:22:30.036Z,30.88
2018-02-19T09:24:57.548Z,31.30
2018-02-19T09:27:25.050Z,32.00
2018-02-19T09:29:52.554Z,32.70
2018-02-19T09:32:20.070Z,32.65
2018-02-19T09:34:48.348Z,31.08
2018-02-19T09:41:52.811Z,30.73
2018-02-19T09:44:22.599Z,29.50
2018-02-19T09:46:50.126Z,29.87
2018-02-19T09:49:17.730Z,28.17
2018-02-19T09:51:45.995Z,29.80
2018-02-19T09:54:13.504Z,30.25
2018-02-19T09:56:41.027Z,28.02
2018-02-19T09:59:09.292Z,27.62
2018-02-19T10:01:36.807Z,27.85
2018-02-19T10:04:04.303Z,27.40
2018-02-19T10:06:31.814Z,26.55
2018-02-19T10:08:59.347Z,26.23
2018-02-19T10:11:27.628Z,23.02
2018-02-19T10:13:55.903Z,26.42
2018-02-19T10:16:24.161Z,23.67
2018-02-19T10:18:51.658Z,22.10
2018-02-19T10:21:19.205Z,22.27
2018-02-19T10:23:46.709Z,20.58
2018-02-19T10:26:14.224Z,22.60
2018-02-19T10:28:41.724Z,20.58
2018-02-19T10:31:09.241Z,21.27
2018-02-19T10:33:36.745Z,23.55
2018-02-19T10:36:04.246Z,19.23
2018-02-19T10:38:32.511Z,18.73
2018-02-19T10:41:00.782Z,21.17
2018-02-19T10:43:28.283Z,22.52
2018-02-19T10:45:55.779Z,20.80
2018-02-19T10:48:23.302Z,22.27
2018-02-19T10:50:50.803Z,20.95
2018-02-19T10:53:18.296Z,21.30
2018-02-19T10:55:45.799Z,21.08
2018-02-19T10:58:13.303Z,22.25
2018-02-19T11:00:45.500Z,21.62
2018-02-19T11:03:12.990Z,20.80
2018-02-19T11:05:40.498Z,23.38
2018-02-19T11:08:07.998Z,21.85
2018-02-19T11:10:35.495Z,22.42
2018-02-19T11:13:03.755Z,23.55
2018-02-19T11:15:32.770Z,23.10
2018-02-19T11:18:01.027Z,24.95
2018-02-19T11:20:28.540Z,22.80
2018-02-19T11:22:57.111Z,23.92
2018-02-19T11:25:24.651Z,25.10
2018-02-19T11:27:52.953Z,22.48
2018-02-19T11:30:20.449Z,23.95
2018-02-19T11:32:47.967Z,22.17
2018-02-19T11:35:15.479Z,22.55
2018-02-19T11:37:42.995Z,23.25
2018-02-19T11:40:10.483Z,23.23
2018-02-19T11:42:37.986Z,21.58
2018-02-19T11:45:05.495Z,22.95
2018-02-19T11:47:33.011Z,22.98
2018-02-19T11:50:00.506Z,22.17
2018-02-19T11:52:28.025Z,22.80
2018-02-19T11:54:55.523Z,24.77
2018-02-19T11:57:23.035Z,22.45
2018-02-19T11:59:51.350Z,21.48
2018-02-19T12:02:18.815Z,20.00
2018-02-19T12:04:46.320Z,20.85
2018-02-19T12:07:14.578Z,22.87
2018-02-19T12:09:42.091Z,22.10
2018-02-19T12:12:09.583Z,19.60
2018-02-19T12:14:37.092Z,22.27
2018-02-19T12:17:04.583Z,21.08
2018-02-19T12:19:32.104Z,22.15
2018-02-19T12:21:59.640Z,20.62
2018-02-19T12:24:27.912Z,21.05
2018-02-19T12:26:56.183Z,20.42
2018-02-19T12:29:23.683Z,21.23
2018-02-19T12:31:51.195Z,18.30
2018-02-19T12:34:18.699Z,18.08
2018-02-19T12:36:46.261Z,18.87
2018-02-19T12:39:13.758Z,18.73
2018-02-19T12:41:42.770Z,18.75
2018-02-19T12:44:11.044Z,20.02
2018-02-19T12:46:39.324Z,20.08
2018-02-19T12:49:06.903Z,17.83
2018-02-19T12:51:35.221Z,19.15
2018-02-19T12:54:02.687Z,17.02
2018-02-19T12:56:30.200Z,18.87
2018-02-19T12:58:57.711Z,19.30
2018-02-19T13:01:25.220Z,18.12
2018-02-19T13:03:52.724Z,18.95
2018-02-19T13:06:20.235Z,18.60
2018-02-19T13:08:47.758Z,17.87
2018-02-19T13:11:16.032Z,18.30
2018-02-19T13:13:43.567Z,17.58
2018-02-19T13:16:11.079Z,18.37
2018-02-19T13:18:39.360Z,17.50
2018-02-19T13:21:06.873Z,17.70
2018-02-19T13:23:34.399Z,17.05
2018-02-19T13:26:01.918Z,16.35
2018-02-19T13:28:30.254Z,17.87
2018-02-19T13:30:57.768Z,17.37
2018-02-19T13:33:26.039Z,16.00
2018-02-19T13:35:54.315Z,17.25
2018-02-19T13:38:22.592Z,17.08
2018-02-19T13:40:50.878Z,15.77
2018-02-19T13:43:18.383Z,16.60
2018-02-19T13:45:45.910Z,15.30
2018-02-19T13:48:13.411Z,16.20
2018-02-19T13:50:40.920Z,17.60
2018-02-19T13:53:08.440Z,16.40
2018-02-19T13:55:35.944Z,16.08
2018-02-19T13:58:03.455Z,15.63
2018-02-19T14:00:31.027Z,16.42
2018-02-19T14:02:59.315Z,16.98
2018-02-19T14:05:26.831Z,18.25
2018-02-19T14:07:54.340Z,16.37
2018-02-19T14:10:21.852Z,17.40
2018-02-19T14:12:50.891Z,17.70
2018-02-19T14:15:18.400Z,18.27
2018-02-19T14:17:45.908Z,18.80
2018-02-19T14:20:13.431Z,19.40
2018-02-19T14:22:40.934Z,19.73
2018-02-19T14:25:08.435Z,18.17
2018-02-19T14:27:35.931Z,19.60
2018-02-19T14:30:04.278Z,20.10
2018-02-19T14:32:32.563Z,20.33
2018-02-19T14:35:00.065Z,20.80
2018-02-19T14:37:27.576Z,20.00
2018-02-19T14:39:55.171Z,20.90
2018-02-19T14:42:22.695Z,22.57
2018-02-19T14:44:50.196Z,21.10
2018-02-19T14:47:17.711Z,21.90
2018-02-19T14:49:45.214Z,21.33
2018-02-19T14:52:12.727Z,22.40
2018-02-19T14:54:40.235Z,20.77
2018-02-19T14:57:07.806Z,20.20
2018-02-19T14:59:35.323Z,18.57
2018-02-19T15:02:03.612Z,20.70
2018-02-19T15:04:31.878Z,20.57
2018-02-19T15:07:00.151Z,19.30
2018-02-19T15:09:28.468Z,20.30
2018-02-19T15:11:55.983Z,20.83
2018-02-19T15:14:24.279Z,20.67
2018-02-19T15:16:51.788Z,18.95
2018-02-19T15:19:19.301Z,19.73
2018-02-19T15:21:46.823Z,21.20
2018-02-19T15:24:14.351Z,20.42
2018-02-19T15:26:41.898Z,19.65
2018-02-19T15:29:09.431Z,18.65
2018-02-19T15:31:37.696Z,20.27
2018-02-19T15:34:05.955Z,19.70
2018-02-19T15:36:33.451Z,19.52
2018-02-19T15:39:00.997Z,21.23
2018-02-19T15:41:29.263Z,20.35
2018-02-19T15:43:57.527Z,20.33
2018-02-19T15:46:25.015Z,19.85
2018-02-19T15:48:52.537Z,18.20
2018-02-19T15:51:20.807Z,20.80
2018-02-19T15:53:48.312Z,18.70
2018-02-19T15:56:15.805Z,19.77
2018-02-19T15:58:43.315Z,19.45
2018-02-19T16:01:11.592Z,18.98
2018-02-19T16:03:39.851Z,19.48
2018-02-19T16:06:08.156Z,19.42
2018-02-19T16:08:35.671Z,19.87
2018-02-19T16:11:03.159Z,19.55
2018-02-19T16:13:31.442Z,19.37
2018-02-19T16:15:59.707Z,18.85
2018-02-19T16:18:27.967Z,19.95
2018-02-19T16:20:55.462Z,18.00
2018-02-19T16:23:22.955Z,19.23
2018-02-19T16:25:50.467Z,20.35
2018-02-19T16:28:18.730Z,20.27
2018-02-19T16:30:46.999Z,20.60
2018-02-19T16:33:14.511Z,19.52
2018-02-19T16:35:42.003Z,20.42
2018-02-19T16:38:09.502Z,20.52
2018-02-19T16:40:37.782Z,19.95
2018-02-19T16:43:05.277Z,20.67
2018-02-19T16:45:32.775Z,19.70
2018-02-19T16:48:01.056Z,20.88
2018-02-19T16:50:29.332Z,21.50
2018-02-19T16:52:57.603Z,21.55
2018-02-19T16:55:25.879Z,21.45
2018-02-19T16:57:54.155Z,21.85
2018-02-19T17:00:22.420Z,22.80
2018-02-19T17:02:49.926Z,21.58
2018-02-19T17:05:17.459Z,20.35
2018-02-19T17:07:45.721Z,21.10
2018-02-19T17:10:13.232Z,21.95
2018-02-19T17:12:40.751Z,23.40
2018-02-19T17:15:09.008Z,23.08
2018-02-19T17:17:36.502Z,23.80
2018-02-19T17:20:03.999Z,22.85
2018-02-19T17:22:31.551Z,25.10
2018-02-19T17:24:59.047Z,23.55
2018-02-19T17:27:26.538Z,22.85
2018-02-19T17:29:54.047Z,23.12
2018-02-19T17:32:21.568Z,23.42
2018-02-19T17:34:50.007Z,23.73
2018-02-19T17:37:18.290Z,24.30
2018-02-19T17:39:46.551Z,22.95
2018-02-19T17:42:14.078Z,24.17
2018-02-19T17:44:41.579Z,22.37
2018-02-19T17:47:09.867Z,22.80
2018-02-19T17:49:38.131Z,22.58
2018-02-19T17:52:06.421Z,22.17
2018-02-19T17:54:34.691Z,23.58
2018-02-19T17:57:02.967Z,23.05
2018-02-19T17:59:31.235Z,22.92
2018-02-19T18:01:59.511Z,22.90
2018-02-19T18:04:27.780Z,22.58
2018-02-19T18:06:56.055Z,24.02
2018-02-19T18:09:23.627Z,24.65
2018-02-19T18:11:51.882Z,24.00
2018-02-19T18:14:19.398Z,25.12
2018-02-19T18:16:46.908Z,26.25
2018-02-19T18:19:15.271Z,24.75
2018-02-19T18:21:42.780Z,25.12
2018-02-19T18:24:10.275Z,24.83
2018-02-19T18:26:37.787Z,23.55
2018-02-19T18:29:06.043Z,25.45
2018-02-19T18:31:33.555Z,23.27
2018-02-19T18:34:01.063Z,24.12
2018-02-19T18:36:29.347Z,24.75
2018-02-19T18:38:57.613Z,22.90
2018-02-19T18:41:25.904Z,25.60
2018-02-19T18:43:54.183Z,22.87
2018-02-19T18:46:22.447Z,24.25
2018-02-19T18:48:50.712Z,24.30
2018-02-19T18:51:18.203Z,23.30
2018-02-19T18:53:45.696Z,23.08
2018-02-19T18:56:13.203Z,25.80
2018-02-19T18:58:41.464Z,24.80
2018-02-19T19:01:08.961Z,23.77
2018-02-19T19:03:36.451Z,24.05
2018-02-19T19:06:03.952Z,22.67
2018-02-19T19:08:44.927Z,24.70
2018-02-19T19:11:13.200Z,23.67
2018-02-19T19:16:24.200Z,24.23
2018-02-19T19:18:51.712Z,23.80
2018-02-19T19:21:19.245Z,23.15
2018-02-19T19:23:46.772Z,23.67
2018-02-19T19:26:15.029Z,25.35
2018-02-19T19:28:42.534Z,25.83
2018-02-19T19:31:10.032Z,24.92
2018-02-19T19:33:37.527Z,24.95
2018-02-19T19:36:05.794Z,23.70
2018-02-19T19:38:34.063Z,22.02
2018-02-19T19:41:01.561Z,23.92
2018-02-19T19:43:29.057Z,24.98
2018-02-19T19:45:56.577Z,24.63
2018-02-19T19:48:24.087Z,25.83
2018-02-19T19:50:51.604Z,23.75
2018-02-19T19:53:19.103Z,25.60
2018-02-19T19:55:46.597Z,26.95
2018-02-19T19:58:14.113Z,26.55
2018-02-19T20:00:41.679Z,26.05
2018-02-19T20:03:09.135Z,26.35
2018-02-19T20:05:36.646Z,25.50
2018-02-19T20:08:04.135Z,25.80
2018-02-19T20:10:31.641Z,26.92
2018-02-19T20:12:59.918Z,29.15
2018-02-19T20:15:28.180Z,26.73
2018-02-19T20:17:56.448Z,28.87
2018-02-19T20:20:23.955Z,29.42
2018-02-19T20:22:51.453Z,27.23
2018-02-19T20:25:18.961Z,26.50
2018-02-19T20:27:46.499Z,27.87
2018-02-19T20:30:14.752Z,27.02
2018-02-19T20:32:42.247Z,26.80
2018-02-19T20:35:09.743Z,29.73
2018-02-19T20:37:37.255Z,26.62
2018-02-19T20:40:05.522Z,27.85
2018-02-19T20:42:33.783Z,27.90
2018-02-19T20:45:01.275Z,29.35
2018-02-19T20:47:28.792Z,27.67
2018-02-19T20:49:56.339Z,28.20
2018-02-19T20:52:23.852Z,29.70
2018-02-19T20:54:51.346Z,28.45
2018-02-19T20:57:18.839Z,28.38
2018-02-19T20:59:47.111Z,31.05
2018-02-19T21:02:14.615Z,29.92
2018-02-19T21:04:42.123Z,26.85
2018-02-19T21:07:09.628Z,27.90
2018-02-19T21:09:37.163Z,28.12
2018-02-19T21:12:05.443Z,28.38
2018-02-19T21:14:33.699Z,26.67
2018-02-19T21:17:01.218Z,28.42
2018-02-19T21:19:28.730Z,26.58
2018-02-19T21:21:57.095Z,27.27
2018-02-19T21:24:25.371Z,25.92
2018-02-19T21:26:53.657Z,27.33
2018-02-19T21:29:21.927Z,26.37
2018-02-19T21:31:50.195Z,26.85
2018-02-19T21:34:17.691Z,25.83
2018-02-19T21:36:45.196Z,27.65
2018-02-19T21:39:12.695Z,26.33
2018-02-19T21:41:40.958Z,28.12
2018-02-19T21:44:09.247Z,26.30
2018-02-19T21:46:37.523Z,28.08
2018-02-19T21:49:05.784Z,26.55
2018-02-19T21:51:34.180Z,26.83
2018-02-19T21:54:02.439Z,26.35
2018-02-19T21:56:30.702Z,24.70
2018-02-19T21:58:58.200Z,26.08
2018-02-19T22:01:25.831Z,24.48
2018-02-19T22:03:53.319Z,24.95
2018-02-19T22:06:20.814Z,26.00
2018-02-19T22:08:48.314Z,25.27
2018-02-19T22:11:16.592Z,23.90
2018-02-19T22:13:44.856Z,22.90
2018-02-19T22:16:12.364Z,22.58
2018-02-19T22:18:39.863Z,23.60
2018-02-19T22:21:08.500Z,23.08
2018-02-19T22:23:36.012Z,24.02
2018-02-19T22:26:03.501Z,22.33
2018-02-19T22:28:31.002Z,22.58
2018-02-19T22:30:58.511Z,21.92
2018-02-19T22:33:26.770Z,22.90
2018-02-19T22:35:55.048Z,24.00
2018-02-19T22:38:23.319Z,22.52
2018-02-19T22:40:50.821Z,23.23
2018-02-19T22:43:18.315Z,23.50
2018-02-19T22:45:45.811Z,23.77
2018-02-19T22:48:14.075Z,21.92
2018-02-19T22:50:42.339Z,21.08
2018-02-19T22:53:09.847Z,22.13
2018-02-19T22:55:37.356Z,22.92
2018-02-19T22:58:04.863Z,23.05
2018-02-19T23:00:32.359Z,22.80
2018-02-19T23:02:59.851Z,22.80
2018-02-19T23:05:28.110Z,22.98
2018-02-19T23:07:56.371Z,23.12
2018-02-19T23:10:23.867Z,23.05
2018-02-19T23:12:52.136Z,23.23
2018-02-19T23:15:20.392Z,24.15
2018-02-19T23:17:49.411Z,23.60
2018-02-19T23:20:17.670Z,23.50
2018-02-19T23:22:45.167Z,23.87
2018-02-19T23:25:12.666Z,21.70
2018-02-19T23:27:40.181Z,22.90
2018-02-19T23:30:07.676Z,22.40
2018-02-19T23:32:35.179Z,21.60
2018-02-19T23:35:03.452Z,23.33
2018-02-19T23:37:31.711Z,22.60
2018-02-19T23:39:59.314Z,22.45
2018-02-19T23:42:26.877Z,24.63
2018-02-19T23:44:55.103Z,21.80
2018-02-19T23:47:22.603Z,22.77
2018-02-19T23:49:50.115Z,25.90
2018-02-19T23:52:19.118Z,23.62
2018-02-19T23:54:46.619Z,24.42
2018-02-19T23:57:14.147Z,23.20
2018-02-19T23:59:42.407Z,23.08
